Time;durP1;ratioP1;P1;durP2;ratioP2;P2;SDS_P1;SDS_P2;PMS_P1;PMS_P2;Temp;Humidity;BMP_temperature;BMP_pressure;BME280_temperature;BME280_humidity;BME280_pressure;Samples;Min_cycle;Max_cycle;Signal;HPM_P1;HPM_P2
2022/03/22 00:00:50;;;;;;;2.30;1.30;;;22.90;46.50;;;;;;5087172;28;20040;-45
2022/03/22 00:03:17;;;;;;;3.05;1.10;;;22.90;46.60;;;;;;5083785;28;20035;-46
2022/03/22 00:05:44;;;;;;;2.08;1.02;;;22.90;46.50;;;;;;5081774;28;20024;-46
2022/03/22 00:08:11;;;;;;;2.00;1.10;;;22.90;46.50;;;;;;5070704;28;20048;-45
2022/03/22 00:10:38;;;;;;;1.60;1.10;;;22.80;46.20;;;;;;5072450;28;20513;-44
2022/03/22 00:13:05;;;;;;;2.58;1.02;;;22.80;46.20;;;;;;5071803;28;20045;-45
2022/03/22 00:15:35;;;;;;;1.50;0.95;;;22.80;46.30;;;;;;5083113;28;20043;-45
2022/03/22 00:18:01;;;;;;;1.05;0.95;;;22.80;46.40;;;;;;5084740;28;20377;-45
2022/03/22 00:20:27;;;;;;;2.30;1.30;;;22.80;46.20;;;;;;5085152;28;20024;-45
2022/03/22 00:22:54;;;;;;;2.85;1.13;;;22.80;46.30;;;;;;5088117;28;20032;-45
2022/03/22 00:25:20;;;;;;;1.13;0.90;;;22.80;46.10;;;;;;5080396;28;20025;-45
2022/03/22 00:27:53;;;;;;;1.43;1.13;;;22.70;46.10;;;;;;5093487;28;20152;-44
2022/03/22 00:30:27;;;;;;;1.75;0.98;;;22.70;46.30;;;;;;5095429;28;20056;-45
2022/03/22 00:32:54;;;;;;;1.77;1.00;;;22.70;46.40;;;;;;5064646;28;20083;-45
2022/03/22 00:35:23;;;;;;;;;;;22.70;46.40;;;;;;5084774;28;20040;-46
2022/03/22 00:37:51;;;;;;;1.83;1.00;;;22.70;46.50;;;;;;5083900;28;19909;-45
2022/03/22 00:40:17;;;;;;;;;;;22.70;46.40;;;;;;5074517;28;20050;-46
2022/03/22 00:42:47;;;;;;;1.40;1.10;;;22.70;46.40;;;;;;5083059;28;19914;-45
2022/03/22 00:45:16;;;;;;;1.77;1.00;;;22.60;46.40;;;;;;5094392;28;20047;-45
2022/03/22 00:47:46;;;;;;;1.27;1.02;;;22.60;46.30;;;;;;5092038;28;20024;-44
2022/03/22 00:50:13;;;;;;;1.00;0.90;;;22.60;45.60;;;;;;5095424;28;20045;-45
2022/03/22 00:52:40;;;;;;;1.10;0.80;;;22.60;45.60;;;;;;5089369;28;20036;-45
2022/03/22 00:55:07;;;;;;;1.92;1.05;;;22.60;45.60;;;;;;5089803;28;20025;-45
2022/03/22 00:57:33;;;;;;;1.00;0.90;;;22.50;45.40;;;;;;5072518;28;20503;-45
2022/03/22 01:00:06;;;;;;;1.10;0.90;;;22.50;45.80;;;;;;5087986;28;20678;-44
2022/03/22 01:02:37;;;;;;;1.50;1.15;;;22.50;45.20;;;;;;5083142;28;20028;-46
2022/03/22 01:05:04;;;;;;;1.23;1.00;;;22.50;45.10;;;;;;5079266;28;20025;-46
2022/03/22 01:07:33;;;;;;;1.70;1.00;;;22.50;45.30;;;;;;5084721;28;20263;-45
2022/03/22 01:10:05;;;;;;;1.08;0.95;;;22.40;45.20;;;;;;5084969;28;20115;-45
2022/03/22 01:12:35;;;;;;;4.35;1.15;;;22.40;45.20;;;;;;5085965;28;20036;-43
2022/03/22 01:15:15;;;;;;;8.38;1.30;;;22.40;45.50;;;;;;5083849;28;20133;-44
2022/03/22 01:17:45;;;;;;;7.43;1.60;;;22.40;45.60;;;;;;5064400;28;20020;-40
2022/03/22 01:20:11;;;;;;;6.90;1.25;;;22.40;45.80;;;;;;5065882;28;20080;-41
2022/03/22 01:22:42;;;;;;;5.80;1.55;;;22.40;46.00;;;;;;5079858;28;20042;-41
2022/03/22 01:25:15;;;;;;;9.07;1.50;;;22.40;45.70;;;;;;5078990;28;20041;-41
2022/03/22 01:27:42;;;;;;;6.32;1.92;;;22.30;46.10;;;;;;5084246;28;20051;-41
2022/03/22 01:30:10;;;;;;;4.03;1.20;;;22.30;45.80;;;;;;5074764;28;20021;-41
2022/03/22 01:32:36;;;;;;;7.30;1.65;;;22.30;45.60;;;;;;5070165;28;20074;-41
2022/03/22 01:35:06;;;;;;;3.75;1.45;;;22.30;45.50;;;;;;5085796;28;20084;-41
2022/03/22 01:37:32;;;;;;;4.20;1.25;;;22.20;45.30;;;;;;5082340;28;20037;-41
2022/03/22 01:39:58;;;;;;;6.13;1.35;;;22.20;45.30;;;;;;5078732;28;20080;-41
2022/03/22 01:42:25;;;;;;;2.75;1.60;;;22.20;45.30;;;;;;5081766;28;20036;-41
2022/03/22 01:44:51;;;;;;;4.05;1.67;;;22.20;45.20;;;;;;5082148;28;20016;-41
2022/03/22 01:47:22;;;;;;;2.78;1.55;;;22.20;45.20;;;;;;5079766;28;20115;-42
2022/03/22 01:49:50;;;;;;;3.83;1.52;;;22.20;45.20;;;;;;5083369;28;20454;-41
2022/03/22 01:52:19;;;;;;;3.10;1.40;;;22.10;45.20;;;;;;5083306;28;20759;-41
2022/03/22 01:54:46;;;;;;;3.72;1.55;;;22.10;45.10;;;;;;5082285;28;20057;-41
2022/03/22 01:57:12;;;;;;;4.45;1.85;;;22.10;45.20;;;;;;5082567;28;20037;-41
2022/03/22 01:59:38;;;;;;;1.55;1.30;;;22.10;45.60;;;;;;5081198;28;20028;-41
2022/03/22 02:07:35;;;;;;;2.88;1.30;;;22.10;45.80;;;;;;5080545;28;20043;-41
2022/03/22 02:10:02;;;;;;;1.42;1.33;;;22.10;45.80;;;;;;5061275;28;20092;-41
2022/03/22 02:12:28;;;;;;;1.40;1.20;;;22.00;45.80;;;;;;5081621;28;20037;-41
2022/03/22 02:14:54;;;;;;;2.67;1.30;;;22.00;45.70;;;;;;5081095;28;20044;-42
2022/03/22 02:17:20;;;;;;;1.88;1.20;;;22.00;45.70;;;;;;5082324;28;20028;-41
2022/03/22 02:19:47;;;;;;;1.52;1.25;;;22.00;45.90;;;;;;5081938;28;20016;-42
2022/03/22 02:22:16;;;;;;;2.85;1.50;;;22.00;46.20;;;;;;5075566;28;20094;-41
2022/03/22 02:24:42;;;;;;;3.20;1.10;;;22.00;46.30;;;;;;5079719;28;20079;-41
2022/03/22 02:27:09;;;;;;;1.42;1.25;;;22.00;46.20;;;;;;5081354;28;20052;-42
2022/03/22 02:29:35;;;;;;;1.42;1.20;;;22.00;46.20;;;;;;5078109;28;20039;-41
2022/03/22 02:32:04;;;;;;;2.47;1.13;;;22.00;46.10;;;;;;5098363;28;20051;-41
2022/03/22 02:34:31;;;;;;;2.25;1.10;;;22.00;46.10;;;;;;5099253;28;20088;-41
2022/03/22 02:37:00;;;;;;;2.25;1.48;;;22.00;46.10;;;;;;5084787;28;20041;-39
2022/03/22 02:39:26;;;;;;;1.30;1.20;;;21.90;46.00;;;;;;5085346;28;20020;-38
2022/03/22 02:41:52;;;;;;;1.23;1.10;;;21.90;45.90;;;;;;5092869;28;20024;-38
2022/03/22 02:44:21;;;;;;;1.50;1.10;;;22.00;46.30;;;;;;5088249;28;20096;-38
2022/03/22 02:46:47;;;;;;;1.60;1.10;;;22.00;46.60;;;;;;5085086;28;20037;-39
2022/03/22 02:49:13;;;;;;;2.33;1.30;;;22.00;46.60;;;;;;5089676;28;20484;-39
2022/03/22 02:51:40;;;;;;;1.02;0.93;;;22.00;46.60;;;;;;5089848;28;20063;-39
2022/03/22 02:54:06;;;;;;;1.33;0.85;;;22.00;46.40;;;;;;5081184;28;20788;-39
2022/03/22 02:56:33;;;;;;;2.17;1.05;;;22.00;46.30;;;;;;5080934;28;20040;-39
2022/03/22 02:59:00;;;;;;;3.03;1.33;;;22.00;46.30;;;;;;5081587;28;20565;-39
2022/03/22 03:01:26;;;;;;;1.63;0.98;;;21.90;46.20;;;;;;5074598;28;20039;-39
2022/03/22 03:03:52;;;;;;;1.05;0.82;;;21.90;46.20;;;;;;5071345;28;20110;-39
2022/03/22 03:06:19;;;;;;;2.65;1.13;;;21.90;46.60;;;;;;5063311;28;20033;-39
2022/03/22 03:08:45;;;;;;;1.10;0.95;;;22.00;46.80;;;;;;5070232;28;20032;-39
2022/03/22 03:11:12;;;;;;;1.63;1.10;;;21.90;46.80;;;;;;5080986;28;20044;-39
2022/03/22 03:16:24;;;;;;;1.73;1.05;;;22.00;46.60;;;;;;5076977;28;20047;-39
2022/03/22 03:18:51;;;;;;;1.73;1.27;;;22.00;46.50;;;;;;5077724;28;20025;-39
2022/03/22 03:21:17;;;;;;;2.08;1.10;;;21.90;46.40;;;;;;5074071;28;20043;-39
2022/03/22 03:23:43;;;;;;;1.35;1.10;;;21.90;46.50;;;;;;5078176;28;20028;-46
2022/03/22 03:26:09;;;;;;;2.28;0.85;;;21.90;46.80;;;;;;5095045;28;20063;-39
2022/03/22 03:28:35;;;;;;;1.67;1.02;;;22.00;46.80;;;;;;5093118;28;20030;-39
2022/03/22 03:31:01;;;;;;;1.60;1.00;;;22.00;46.70;;;;;;5081133;28;20040;-39
2022/03/22 03:33:28;;;;;;;1.42;1.00;;;21.90;46.60;;;;;;5080443;28;20044;-38
2022/03/22 03:35:54;;;;;;;1.73;1.10;;;22.00;46.50;;;;;;5097118;28;20040;-39
2022/03/22 03:38:20;;;;;;;2.20;0.90;;;21.90;46.50;;;;;;5097060;28;20027;-39
2022/03/22 03:43:31;;;;;;;1.35;1.20;;;21.90;46.60;;;;;;5087998;28;20031;-39
2022/03/22 03:48:41;;;;;;;1.95;1.10;;;22.00;47.60;;;;;;5088811;28;20031;-39
2022/03/22 03:51:07;;;;;;;1.50;1.00;;;22.00;46.90;;;;;;5090650;28;20523;-39
2022/03/22 03:53:33;;;;;;;1.60;1.15;;;22.00;46.80;;;;;;5091153;28;20024;-39
2022/03/22 03:55:59;;;;;;;1.80;1.20;;;21.90;46.60;;;;;;5087818;28;20819;-39
2022/03/22 03:58:26;;;;;;;1.20;0.98;;;22.00;46.60;;;;;;5088376;28;20040;-39
2022/03/22 04:00:52;;;;;;;1.35;1.20;;;21.90;46.50;;;;;;5087527;28;20024;-39
2022/03/22 04:03:18;;;;;;;1.55;1.23;;;22.00;46.90;;;;;;5079215;28;20167;-39
2022/03/22 04:05:44;;;;;;;2.17;1.05;;;22.00;47.00;;;;;;5087220;28;20036;-38
2022/03/22 04:08:10;;;;;;;1.60;1.30;;;22.00;47.10;;;;;;5077068;28;20060;-39
2022/03/22 04:10:36;;;;;;;1.42;1.10;;;22.00;47.00;;;;;;5097985;28;20106;-39
2022/03/22 04:13:02;;;;;;;1.20;1.10;;;22.00;46.80;;;;;;5088102;28;20024;-38
2022/03/22 04:15:29;;;;;;;1.63;1.02;;;22.00;46.80;;;;;;5078381;28;20046;-40
2022/03/22 04:17:59;;;;;;;2.33;1.10;;;22.00;46.70;;;;;;5079920;28;20017;-39
2022/03/22 04:20:26;;;;;;;2.35;1.30;;;21.90;46.70;;;;;;5085261;28;20056;-39
2022/03/22 04:22:52;;;;;;;;;;;22.00;47.00;;;;;;5088933;28;20028;-39
2022/03/22 04:25:18;;;;;;;3.45;1.20;;;22.00;47.10;;;;;;5089220;28;20436;-39
2022/03/22 04:33:14;;;;;;;2.00;1.20;;;22.00;46.80;;;;;;5087293;28;20039;-39
2022/03/22 04:35:40;;;;;;;1.40;1.30;;;21.90;46.70;;;;;;5087891;28;20033;-39
2022/03/22 04:38:06;;;;;;;1.45;1.10;;;21.90;46.70;;;;;;5087520;28;20044;-39
2022/03/22 04:40:32;;;;;;;1.88;1.40;;;22.00;47.00;;;;;;5073426;28;20095;-39
2022/03/22 04:42:58;;;;;;;1.60;1.10;;;22.00;47.20;;;;;;5087764;28;20037;-39
2022/03/22 04:45:25;;;;;;;1.73;1.17;;;22.00;47.20;;;;;;5085452;28;20048;-39
2022/03/22 04:47:51;;;;;;;3.30;1.42;;;22.00;47.00;;;;;;5078852;28;20025;-39
2022/03/22 04:50:17;;;;;;;1.42;1.25;;;22.00;47.00;;;;;;5084022;28;20032;-39
2022/03/22 04:58:13;;;;;;;2.17;1.30;;;21.90;46.90;;;;;;5098863;28;20051;-39
2022/03/22 05:00:39;;;;;;;2.17;1.20;;;22.00;47.30;;;;;;5084068;28;20025;-38
2022/03/22 05:03:08;;;;;;;1.58;1.25;;;22.00;47.30;;;;;;5084012;28;20020;-38
2022/03/22 05:08:19;;;;;;;1.50;1.30;;;22.00;47.00;;;;;;5081733;28;20689;-39
2022/03/22 05:10:45;;;;;;;1.88;1.08;;;22.00;47.00;;;;;;5070658;28;20044;-39
2022/03/22 05:13:11;;;;;;;2.28;1.48;;;22.00;46.90;;;;;;5073303;28;20031;-39
2022/03/22 05:15:38;;;;;;;1.75;1.20;;;22.00;47.10;;;;;;5079993;28;20726;-38
2022/03/22 05:18:04;;;;;;;1.95;1.42;;;22.00;47.20;;;;;;5065522;28;20035;-39
2022/03/22 05:20:31;;;;;;;2.55;1.50;;;22.00;47.30;;;;;;5069869;28;20136;-39
2022/03/22 05:22:58;;;;;;;0.95;0.68;;;22.00;47.10;;;;;;5083747;28;20062;-39
2022/03/22 05:25:24;;;;;;;;;;;22.00;47.00;;;;;;5084226;28;20056;-39
2022/03/22 05:27:50;;;;;;;2.60;1.10;;;22.00;46.90;;;;;;5083743;28;19923;-39
2022/03/22 05:30:16;;;;;;;1.85;1.45;;;22.00;46.90;;;;;;5083761;28;20035;-39
2022/03/22 05:32:42;;;;;;;1.52;1.30;;;22.00;47.10;;;;;;5083512;28;20028;-39
2022/03/22 05:35:09;;;;;;;1.67;1.13;;;22.00;47.20;;;;;;5082557;28;20020;-38
2022/03/22 05:37:35;;;;;;;3.23;1.60;;;22.00;47.20;;;;;;5082857;28;20481;-38
2022/03/22 05:40:01;;;;;;;1.45;1.27;;;22.00;47.10;;;;;;5071547;28;20032;-39
2022/03/22 05:42:27;;;;;;;2.03;1.50;;;22.00;47.00;;;;;;5083945;28;20028;-39
2022/03/22 05:44:55;;;;;;;1.60;1.15;;;22.00;47.00;;;;;;5081847;28;20033;-39
2022/03/22 05:47:21;;;;;;;;;;;22.00;47.10;;;;;;5063996;28;20084;-38
2022/03/22 05:49:47;;;;;;;2.38;1.52;;;22.10;47.40;;;;;;5077015;28;19968;-39
2022/03/22 05:52:13;;;;;;;2.03;1.38;;;22.10;47.30;;;;;;5083542;28;20119;-39
2022/03/22 05:54:39;;;;;;;2.50;1.70;;;22.00;47.20;;;;;;5083151;28;20108;-39
2022/03/22 05:57:05;;;;;;;2.58;1.38;;;22.00;47.00;;;;;;5082096;28;20084;-39
2022/03/22 05:59:32;;;;;;;2.13;1.40;;;22.00;47.00;;;;;;5082879;28;20127;-39
2022/03/22 06:01:58;;;;;;;1.40;1.30;;;22.00;46.90;;;;;;5068089;28;20032;-39
2022/03/22 06:04:24;;;;;;;1.70;1.30;;;22.00;47.10;;;;;;5079072;28;20753;-39
2022/03/22 06:06:50;;;;;;;2.38;1.42;;;22.10;47.20;;;;;;5063079;28;20033;-39
2022/03/22 06:09:16;;;;;;;1.88;1.30;;;22.10;47.30;;;;;;5062791;28;20064;-39
2022/03/22 06:11:43;;;;;;;2.87;1.60;;;22.10;47.20;;;;;;5078365;28;20037;-38
2022/03/22 06:14:09;;;;;;;2.13;1.58;;;22.00;47.00;;;;;;5083107;28;20591;-38
2022/03/22 06:16:35;;;;;;;2.25;1.58;;;22.10;47.00;;;;;;5075656;28;20032;-39
2022/03/22 06:19:01;;;;;;;1.60;1.48;;;22.00;47.50;;;;;;5070800;28;20037;-39
2022/03/22 06:21:27;;;;;;;2.20;1.48;;;22.00;47.00;;;;;;5073641;28;20021;-39
2022/03/22 06:23:54;;;;;;;1.60;1.30;;;22.10;47.10;;;;;;5082877;28;20401;-39
2022/03/22 06:26:20;;;;;;;1.80;1.30;;;22.10;47.20;;;;;;5082128;28;20044;-39
2022/03/22 06:28:46;;;;;;;2.17;1.30;;;22.10;47.10;;;;;;5093259;28;20038;-39
2022/03/22 06:31:12;;;;;;;1.58;1.35;;;22.10;47.00;;;;;;5082999;28;20037;-39
2022/03/22 06:33:38;;;;;;;1.55;1.33;;;22.10;46.90;;;;;;5082589;28;20020;-39
2022/03/22 06:36:08;;;;;;;2.83;1.40;;;22.10;46.90;;;;;;5081111;28;20595;-39
2022/03/22 06:38:35;;;;;;;1.42;1.30;;;22.10;47.10;;;;;;5077547;28;20040;-39
2022/03/22 06:41:02;;;;;;;1.92;1.50;;;22.10;47.30;;;;;;5072177;28;20090;-39
2022/03/22 06:43:29;;;;;;;1.40;1.15;;;22.10;47.30;;;;;;5084890;28;20115;-39
2022/03/22 06:45:55;;;;;;;1.45;1.35;;;22.10;47.10;;;;;;5071849;28;20045;-39
2022/03/22 06:48:22;;;;;;;1.95;1.40;;;22.00;47.00;;;;;;5068974;28;20031;-39
2022/03/22 06:50:49;;;;;;;1.60;1.30;;;22.10;47.10;;;;;;5082220;28;20041;-39
2022/03/22 06:53:15;;;;;;;2.45;1.42;;;22.00;46.90;;;;;;5082487;28;20050;-39
2022/03/22 06:55:41;;;;;;;3.00;1.08;;;22.00;47.10;;;;;;5082304;28;20032;-39
2022/03/22 06:58:08;;;;;;;1.30;1.02;;;22.10;47.40;;;;;;5081978;28;20751;-39
2022/03/22 07:00:35;;;;;;;1.40;1.10;;;22.10;47.40;;;;;;5082571;28;20088;-39
2022/03/22 07:03:02;;;;;;;1.48;1.17;;;22.10;47.30;;;;;;5082354;28;20739;-39
2022/03/22 07:05:28;;;;;;;1.83;1.33;;;22.10;47.20;;;;;;5075675;28;20453;-39
2022/03/22 07:07:56;;;;;;;1.98;1.30;;;22.00;47.10;;;;;;5081654;28;20032;-39
2022/03/22 07:10:22;;;;;;;;;;;22.00;47.10;;;;;;5081783;28;20037;-39
2022/03/22 07:12:56;;;;;;;1.50;1.20;;;22.00;47.30;;;;;;5082553;28;19904;-39
2022/03/22 07:15:26;;;;;;;1.48;1.20;;;22.10;47.50;;;;;;5082067;28;20074;-39
2022/03/22 07:17:52;;;;;;;1.67;1.20;;;22.10;47.60;;;;;;5081977;28;20052;-39
2022/03/22 07:20:20;;;;;;;1.17;1.08;;;22.10;47.40;;;;;;5082459;28;20508;-39
2022/03/22 07:22:49;;;;;;;;;;;22.10;47.30;;;;;;5082318;28;20032;-39
2022/03/22 07:25:15;;;;;;;1.50;1.00;;;22.10;47.20;;;;;;5082353;28;20023;-39
2022/03/22 07:27:41;;;;;;;2.05;1.40;;;22.00;47.20;;;;;;5081558;28;20044;-38
2022/03/22 07:30:10;;;;;;;1.20;1.10;;;22.10;47.30;;;;;;5087077;28;20020;-39
2022/03/22 07:32:36;;;;;;;1.77;1.30;;;22.10;47.50;;;;;;5077018;28;20033;-39
2022/03/22 07:35:03;;;;;;;2.70;1.10;;;22.10;48.10;;;;;;5062125;28;20036;-39
2022/03/22 07:37:29;;;;;;;2.27;1.10;;;22.10;47.40;;;;;;5068113;28;20040;-39
2022/03/22 07:39:58;;;;;;;1.70;1.30;;;22.10;47.40;;;;;;5065946;28;20032;-39
2022/03/22 07:42:27;;;;;;;2.22;1.20;;;22.10;47.30;;;;;;5082146;28;20057;-38
2022/03/22 07:44:55;;;;;;;1.40;1.10;;;22.00;47.30;;;;;;5082115;28;20025;-39
2022/03/22 07:47:22;;;;;;;1.42;1.23;;;22.10;47.50;;;;;;5074469;28;20598;-39
2022/03/22 07:55:17;;;;;;;1.50;1.13;;;22.10;47.40;;;;;;5084754;28;20128;-39
2022/03/22 07:57:44;;;;;;;1.50;1.23;;;22.10;47.40;;;;;;5082499;28;20031;-38
2022/03/22 08:00:10;;;;;;;1.23;0.90;;;22.10;47.30;;;;;;5082020;28;20137;-38
2022/03/22 08:02:37;;;;;;;1.33;1.00;;;22.10;47.60;;;;;;5081136;28;20030;-38
2022/03/22 08:05:08;;;;;;;1.97;1.37;;;22.10;47.70;;;;;;5080669;28;20028;-38
2022/03/22 08:07:34;;;;;;;1.15;1.05;;;22.10;47.70;;;;;;5081201;28;20040;-37
2022/03/22 08:10:00;;;;;;;1.67;1.10;;;22.10;47.50;;;;;;5066077;28;20024;-37
2022/03/22 08:12:26;;;;;;;1.20;0.93;;;22.10;47.40;;;;;;5062747;28;20064;-38
2022/03/22 08:14:52;;;;;;;1.40;1.20;;;22.10;47.40;;;;;;5067306;28;20021;-38
2022/03/22 08:17:18;;;;;;;1.35;1.10;;;22.10;47.40;;;;;;5083180;28;20037;-38
2022/03/22 08:19:44;;;;;;;1.75;1.20;;;22.10;47.60;;;;;;5082063;28;20051;-38
2022/03/22 08:22:10;;;;;;;1.55;1.10;;;22.10;47.70;;;;;;5085301;28;20078;-38
2022/03/22 08:24:36;;;;;;;1.33;0.90;;;22.10;47.70;;;;;;5086031;28;20032;-38
2022/03/22 08:27:07;;;;;;;1.27;1.17;;;22.10;47.50;;;;;;5084939;28;20452;-38
2022/03/22 08:29:35;;;;;;;1.23;0.90;;;22.10;47.50;;;;;;5085218;28;20039;-37
2022/03/22 08:32:01;;;;;;;1.95;1.40;;;22.10;47.40;;;;;;5085159;28;20037;-38
2022/03/22 08:34:27;;;;;;;1.55;0.90;;;22.10;47.60;;;;;;5084916;28;20026;-38
2022/03/22 08:36:54;;;;;;;1.48;1.00;;;22.20;47.80;;;;;;5101164;28;20058;-37
2022/03/22 08:39:20;;;;;;;1.58;1.13;;;22.20;47.80;;;;;;5079671;28;20033;-38
2022/03/22 08:41:47;;;;;;;1.70;1.20;;;22.20;47.70;;;;;;5078617;28;20037;-38
2022/03/22 08:44:13;;;;;;;1.07;0.97;;;22.10;47.50;;;;;;5078364;28;20162;-38
2022/03/22 08:46:39;;;;;;;1.48;0.98;;;22.10;47.50;;;;;;5084147;28;20046;-38
2022/03/22 08:49:06;;;;;;;1.58;1.02;;;22.10;47.40;;;;;;5084519;28;20051;-37
2022/03/22 08:51:32;;;;;;;1.85;1.30;;;22.10;47.60;;;;;;5084785;28;20032;-37
2022/03/22 08:53:58;;;;;;;1.00;0.88;;;22.20;47.80;;;;;;5083567;28;20120;-37
2022/03/22 08:56:24;;;;;;;1.30;1.10;;;22.20;47.80;;;;;;5083500;28;20096;-38
2022/03/22 08:58:53;;;;;;;1.08;0.98;;;22.10;47.70;;;;;;5073963;28;20020;-37
2022/03/22 09:01:23;;;;;;;1.55;1.20;;;22.10;47.50;;;;;;5079552;28;20040;-38
2022/03/22 09:06:07;;;;;;;1.20;1.10;;;22.10;47.60;;;;;;5079456;28;20035;-37
2022/03/22 09:06:37;;;;;;;1.75;0.98;;;22.10;47.50;;;;;;5084722;28;20032;-37
2022/03/22 09:09:05;;;;;;;1.10;1.00;;;22.10;47.70;;;;;;5081705;28;20025;-38
2022/03/22 09:11:30;;;;;;;;;;;22.20;47.90;;;;;;5084873;28;20098;-38
2022/03/22 09:13:57;;;;;;;1.70;1.00;;;22.20;47.90;;;;;;5082913;28;19909;-38
2022/03/22 09:16:23;;;;;;;3.13;1.23;;;22.10;47.70;;;;;;5065959;28;20031;-38
2022/03/22 09:18:49;;;;;;;1.50;1.00;;;22.10;47.60;;;;;;5083507;28;20029;-37
2022/03/22 09:21:16;;;;;;;1.50;1.10;;;22.10;47.50;;;;;;5084854;28;20036;-38
2022/03/22 09:24:05;;;;;;;2.20;1.10;;;22.10;47.50;;;;;;5084003;28;20052;-38
2022/03/22 09:26:31;;;;;;;1.10;0.80;;;22.10;47.70;;;;;;5029562;28;20065;-37
2022/03/22 09:28:58;;;;;;;1.80;1.20;;;22.20;47.90;;;;;;5041463;28;20100;-37
2022/03/22 09:31:24;;;;;;;2.20;1.10;;;22.20;47.90;;;;;;5036957;28;20061;-37
2022/03/22 09:33:51;;;;;;;1.13;1.02;;;22.10;47.70;;;;;;5036852;28;20033;-38
2022/03/22 09:36:18;;;;;;;1.38;1.10;;;22.10;47.60;;;;;;5040821;28;20037;-38
2022/03/22 09:38:45;;;;;;;1.00;0.90;;;22.10;47.60;;;;;;5040722;28;20067;-38
2022/03/22 09:41:14;;;;;;;1.40;1.08;;;22.10;47.60;;;;;;5041471;28;20064;-37
2022/03/22 09:43:46;;;;;;;1.73;1.10;;;22.10;47.70;;;;;;5035475;28;20037;-37
2022/03/22 09:46:14;;;;;;;1.38;1.17;;;22.10;47.80;;;;;;5028467;28;20026;-37
2022/03/22 09:48:40;;;;;;;1.30;1.00;;;22.20;47.90;;;;;;5024242;28;20080;-38
2022/03/22 09:53:52;;;;;;;1.45;1.17;;;22.10;47.60;;;;;;5040930;28;20071;-38
2022/03/22 09:56:20;;;;;;;1.38;0.90;;;22.10;47.60;;;;;;5040543;28;20792;-37
2022/03/22 09:58:46;;;;;;;;;;;22.10;47.60;;;;;;5041325;28;20025;-37
2022/03/22 10:01:12;;;;;;;2.45;1.08;;;22.10;47.70;;;;;;5040814;28;19916;-38
2022/03/22 10:03:39;;;;;;;1.50;0.98;;;22.20;47.80;;;;;;5062802;28;20036;-38
2022/03/22 10:06:07;;;;;;;1.08;0.73;;;22.10;47.90;;;;;;5064118;28;20032;-37
2022/03/22 10:08:36;;;;;;;1.13;0.82;;;22.10;47.70;;;;;;5064172;28;20032;-37
2022/03/22 10:11:03;;;;;;;1.45;1.10;;;22.10;47.60;;;;;;5065160;28;20040;-38
2022/03/22 10:13:29;;;;;;;1.05;0.85;;;22.10;47.60;;;;;;5083159;28;20024;-37
2022/03/22 10:16:05;;;;;;;0.95;0.85;;;22.10;47.60;;;;;;5083827;28;20035;-38
2022/03/22 10:18:39;;;;;;;1.25;0.80;;;22.10;47.70;;;;;;5083683;28;20148;-38
2022/03/22 10:21:06;;;;;;;1.05;0.95;;;22.20;47.90;;;;;;5083165;28;20507;-37
2022/03/22 10:23:32;;;;;;;1.25;1.02;;;22.20;48.00;;;;;;5072256;28;20029;-37
2022/03/22 10:26:02;;;;;;;2.10;0.80;;;22.10;47.80;;;;;;5083159;28;20059;-38
2022/03/22 10:28:28;;;;;;;1.30;1.00;;;22.10;47.70;;;;;;5083130;28;20044;-38
2022/03/22 10:30:56;;;;;;;1.10;1.00;;;22.10;47.60;;;;;;5082369;28;20041;-38
2022/03/22 10:33:22;;;;;;;1.15;1.00;;;22.10;47.60;;;;;;5082055;28;20017;-37
2022/03/22 10:35:48;;;;;;;1.10;0.85;;;22.10;47.90;;;;;;5082730;28;20123;-37
2022/03/22 10:38:15;;;;;;;1.30;1.10;;;22.10;47.90;;;;;;5076555;28;20188;-38
2022/03/22 10:40:46;;;;;;;1.88;1.10;;;22.10;48.00;;;;;;5085077;28;20035;-38
2022/03/22 10:43:13;;;;;;;1.40;0.82;;;22.10;47.80;;;;;;5082320;28;20032;-38
2022/03/22 10:45:53;;;;;;;1.33;0.90;;;22.10;47.70;;;;;;5082986;28;20121;-38
2022/03/22 10:48:27;;;;;;;1.83;0.88;;;22.10;47.70;;;;;;5082656;28;20428;-38
2022/03/22 10:51:00;;;;;;;0.90;0.80;;;22.10;47.80;;;;;;5082671;28;20068;-37
2022/03/22 10:53:30;;;;;;;1.33;0.75;;;22.10;47.90;;;;;;5080328;28;20031;-38
2022/03/22 10:55:57;;;;;;;1.17;0.90;;;22.20;48.00;;;;;;5046517;28;20025;-38
2022/03/22 10:58:28;;;;;;;1.17;1.00;;;22.10;48.00;;;;;;5092888;28;20024;-38
2022/03/22 11:00:54;;;;;;;1.15;1.00;;;22.10;47.80;;;;;;5093902;28;20075;-38
2022/03/22 11:03:21;;;;;;;1.13;0.90;;;22.10;47.80;;;;;;5085357;28;20476;-39
2022/03/22 11:05:51;;;;;;;1.10;0.77;;;22.10;47.70;;;;;;5082536;28;20032;-38
2022/03/22 11:08:21;;;;;;;1.00;0.80;;;22.10;47.80;;;;;;5082653;28;20043;-37
2022/03/22 11:10:48;;;;;;;0.80;0.70;;;22.20;48.00;;;;;;5069205;28;20048;-37
2022/03/22 11:13:14;;;;;;;1.40;0.83;;;22.20;48.10;;;;;;5065953;28;20024;-38
2022/03/22 11:15:42;;;;;;;1.13;0.85;;;22.20;48.00;;;;;;5081632;28;20300;-38
2022/03/22 11:18:08;;;;;;;1.23;1.00;;;22.10;47.90;;;;;;5074701;28;20035;-38
2022/03/22 11:20:34;;;;;;;1.10;0.82;;;22.10;47.90;;;;;;5052616;28;20020;-38
2022/03/22 11:23:01;;;;;;;0.90;0.85;;;22.10;47.80;;;;;;5081673;28;20033;-38
2022/03/22 11:25:35;;;;;;;1.48;1.00;;;22.10;47.90;;;;;;5092384;28;20040;-38
2022/03/22 11:28:08;;;;;;;1.48;0.80;;;22.10;48.00;;;;;;5081650;28;20571;-38
2022/03/22 11:30:36;;;;;;;2.22;1.00;;;22.20;48.20;;;;;;5082062;28;20033;-38
2022/03/22 11:35:51;;;;;;;1.90;1.10;;;22.10;48.00;;;;;;5087324;28;20393;-38
2022/03/22 11:38:37;;;;;;;1.58;0.95;;;22.10;48.00;;;;;;5097598;28;20031;-38
2022/03/22 11:43:48;;;;;;;2.45;1.00;;;22.10;48.00;;;;;;5081812;28;20032;-38
2022/03/22 11:46:14;;;;;;;1.48;1.08;;;22.00;47.90;;;;;;5082126;28;20397;-38
2022/03/22 11:48:40;;;;;;;1.90;0.90;;;22.00;47.90;;;;;;5082237;28;20032;-38
2022/03/22 11:51:10;;;;;;;2.45;1.23;;;22.00;47.80;;;;;;5081865;28;20070;-38
2022/03/22 11:53:45;;;;;;;3.42;1.20;;;22.00;47.80;;;;;;5082265;28;20036;-38
2022/03/22 11:56:11;;;;;;;1.98;1.10;;;22.00;47.70;;;;;;5086348;28;20086;-38
2022/03/22 11:58:48;;;;;;;2.60;1.10;;;21.90;47.70;;;;;;5068115;28;20029;-38
2022/03/22 12:01:18;;;;;;;2.00;1.00;;;21.90;47.70;;;;;;5068697;28;20039;-38
2022/03/22 12:03:52;;;;;;;1.58;1.00;;;21.80;47.60;;;;;;5086169;28;20044;-38
2022/03/22 12:06:19;;;;;;;2.22;1.05;;;21.80;47.60;;;;;;5086024;28;20028;-38
2022/03/22 12:08:46;;;;;;;1.92;1.10;;;21.80;47.60;;;;;;5080285;28;20017;-39
2022/03/22 12:11:16;;;;;;;1.98;0.95;;;21.80;47.60;;;;;;5076219;28;20033;-38
2022/03/22 12:13:46;;;;;;;3.78;1.15;;;21.70;47.60;;;;;;5084941;28;20060;-38
2022/03/22 12:16:12;;;;;;;3.05;1.10;;;21.70;47.60;;;;;;5085703;28;20056;-38
2022/03/22 12:18:40;;;;;;;1.55;0.88;;;21.60;47.50;;;;;;5085165;28;20033;-38
2022/03/22 12:21:16;;;;;;;1.48;1.00;;;21.70;47.60;;;;;;5085757;28;20029;-38
2022/03/22 12:23:43;;;;;;;1.45;1.08;;;21.60;47.60;;;;;;5061903;28;20037;-38
2022/03/22 12:26:10;;;;;;;;;;;21.50;47.60;;;;;;5065925;28;20071;-38
2022/03/22 12:28:48;;;;;;;1.48;1.10;;;21.50;47.60;;;;;;5063276;28;20698;-38
2022/03/22 12:31:14;;;;;;;;;;;21.40;47.60;;;;;;5067698;28;20048;-38
2022/03/22 12:33:40;;;;;;;2.97;1.10;;;21.40;47.60;;;;;;5085276;28;19909;-38
2022/03/22 12:36:06;;;;;;;2.92;1.10;;;21.40;47.70;;;;;;5087872;28;20115;-38
2022/03/22 12:38:33;;;;;;;1.42;1.00;;;21.40;47.70;;;;;;5082079;28;20027;-38
2022/03/22 12:40:59;;;;;;;1.38;1.05;;;21.30;47.60;;;;;;5056238;28;20035;-38
2022/03/22 12:43:25;;;;;;;1.67;0.90;;;21.30;47.60;;;;;;5084795;28;20096;-38
2022/03/22 12:45:51;;;;;;;3.03;1.38;;;21.30;47.70;;;;;;5085039;28;20028;-38
2022/03/22 12:48:19;;;;;;;2.20;1.10;;;21.20;47.70;;;;;;5067030;28;20025;-38
2022/03/22 12:50:45;;;;;;;1.42;1.20;;;21.20;47.70;;;;;;5087433;28;20041;-38
2022/03/22 12:53:12;;;;;;;1.65;1.30;;;21.20;47.80;;;;;;5082795;28;20028;-38
2022/03/22 12:55:42;;;;;;;3.75;1.30;;;21.10;47.80;;;;;;5083979;28;20037;-38
2022/03/22 12:58:08;;;;;;;4.05;1.30;;;21.10;47.70;;;;;;5084947;28;20107;-38
2022/03/22 13:00:39;;;;;;;1.35;1.00;;;21.10;47.70;;;;;;5085089;28;20055;-38
2022/03/22 13:03:10;;;;;;;2.55;1.13;;;21.10;47.80;;;;;;5084236;28;20036;-38
2022/03/22 13:05:51;;;;;;;1.33;1.15;;;21.00;47.80;;;;;;5084078;28;20024;-38
2022/03/22 13:08:21;;;;;;;1.65;1.08;;;21.00;47.80;;;;;;5084774;28;20035;-38
2022/03/22 13:16:24;;;;;;;2.08;0.88;;;21.00;48.20;;;;;;5084553;28;20578;-37
2022/03/22 13:18:54;;;;;;;1.40;1.08;;;21.00;48.30;;;;;;5084754;28;20031;-38
2022/03/22 13:21:32;;;;;;;2.03;1.05;;;21.00;48.50;;;;;;5087327;28;20024;-38
2022/03/22 13:23:59;;;;;;;;;;;21.00;48.50;;;;;;5084418;28;20025;-39
2022/03/22 13:26:25;;;;;;;1.17;0.90;;;21.00;48.50;;;;;;5084133;28;19924;-37
2022/03/22 13:28:51;;;;;;;1.77;1.10;;;21.00;48.50;;;;;;5084256;28;20115;-38
2022/03/22 13:31:27;;;;;;;3.10;1.38;;;20.90;48.50;;;;;;5084140;28;20040;-37
2022/03/22 13:33:54;;;;;;;2.92;1.13;;;20.90;48.50;;;;;;5083948;28;20033;-37
2022/03/22 13:36:20;;;;;;;4.85;0.88;;;20.90;48.50;;;;;;5084180;28;20056;-37
2022/03/22 13:38:50;;;;;;;3.35;1.02;;;20.90;48.60;;;;;;5083147;28;20037;-37